createdAt,value
2023-04-30T00:00:34.955Z,69.05
2023-04-30T00:03:01.370Z,68.52
2023-04-30T00:05:27.790Z,68.48
2023-04-30T00:07:54.201Z,68.83
2023-04-30T00:10:20.487Z,67.98
2023-04-30T00:12:46.820Z,68.47
2023-04-30T00:15:13.266Z,68.61
2023-04-30T00:17:39.635Z,68.14
2023-04-30T00:20:06.849Z,68.71
2023-04-30T00:22:33.173Z,67.88
2023-04-30T00:24:59.565Z,68.09
2023-04-30T00:27:26.055Z,68.34
2023-04-30T00:29:52.839Z,67.93
2023-04-30T00:32:37.455Z,68.05
2023-04-30T00:35:07.416Z,67.64
2023-04-30T00:37:33.790Z,68.48
2023-04-30T00:40:00.534Z,68.56
2023-04-30T00:42:27.159Z,68.78
2023-04-30T00:44:53.731Z,69.05
2023-04-30T00:47:20.082Z,68.88
2023-04-30T00:49:46.505Z,69.47
2023-04-30T00:52:13.665Z,69.93
2023-04-30T00:54:40.348Z,68.96
2023-04-30T00:57:11.877Z,70.25
2023-04-30T00:59:38.981Z,70.17
2023-04-30T01:02:05.547Z,69.85
2023-04-30T01:04:32.035Z,70.06
2023-04-30T01:06:58.326Z,70.41
2023-04-30T01:09:24.971Z,70.80
2023-04-30T01:12:17.690Z,71.18
2023-04-30T01:15:01.577Z,70.74
2023-04-30T01:17:48.196Z,70.78
2023-04-30T01:20:14.973Z,70.76
2023-04-30T01:22:56.511Z,71.23
2023-04-30T01:25:43.414Z,71.57
2023-04-30T01:28:14.580Z,71.69
2023-04-30T01:30:42.151Z,71.31
2023-04-30T01:33:08.520Z,70.97
2023-04-30T01:36:08.956Z,71.46
2023-04-30T01:38:50.566Z,70.32
2023-04-30T01:41:39.879Z,70.99
2023-04-30T01:44:12.469Z,70.94
2023-04-30T01:46:40.871Z,70.71
2023-04-30T01:49:38.302Z,71.16
2023-04-30T01:52:33.705Z,71.24
2023-04-30T01:55:15.021Z,70.85
2023-04-30T01:57:52.164Z,71.55
2023-04-30T02:00:19.069Z,71.25
2023-04-30T02:02:45.554Z,71.49
2023-04-30T02:05:11.968Z,71.09
2023-04-30T02:07:43.700Z,72.03
2023-04-30T02:10:10.833Z,71.56
2023-04-30T02:12:37.231Z,71.64
2023-04-30T02:15:04.956Z,71.35
2023-04-30T02:17:31.886Z,71.07
2023-04-30T02:19:58.977Z,71.48
2023-04-30T02:22:25.331Z,71.89
2023-04-30T02:24:51.892Z,72.67
2023-04-30T02:27:18.218Z,72.09
2023-04-30T02:29:44.523Z,73.23
2023-04-30T02:32:10.798Z,72.01
2023-04-30T02:34:37.129Z,72.46
2023-04-30T02:37:03.562Z,72.27
2023-04-30T02:39:29.920Z,72.72
2023-04-30T02:41:56.206Z,71.77
2023-04-30T02:44:22.599Z,72.85
2023-04-30T02:46:48.916Z,73.44
2023-04-30T02:49:15.194Z,73.10
2023-04-30T02:51:41.482Z,74.99
2023-04-30T02:54:07.865Z,73.75
2023-04-30T02:56:34.139Z,74.07
2023-04-30T02:59:00.802Z,73.62
2023-04-30T03:01:27.434Z,73.77
2023-04-30T03:03:53.745Z,73.73
2023-04-30T03:06:20.090Z,74.01
2023-04-30T03:08:46.447Z,73.75
2023-04-30T03:11:12.744Z,75.04
2023-04-30T03:13:39.065Z,74.08
2023-04-30T03:16:05.458Z,73.99
2023-04-30T03:18:32.639Z,73.60
2023-04-30T03:20:58.969Z,74.24
2023-04-30T03:23:28.164Z,74.23
2023-04-30T03:25:54.537Z,73.96
2023-04-30T03:28:21.150Z,74.57
2023-04-30T03:30:47.462Z,73.93
2023-04-30T03:33:13.782Z,74.97
2023-04-30T03:35:40.091Z,75.29
2023-04-30T03:38:06.496Z,75.09
2023-04-30T03:40:32.780Z,75.39
2023-04-30T03:42:59.081Z,75.24
2023-04-30T03:45:25.506Z,75.03
2023-04-30T03:47:52.137Z,75.44
2023-04-30T03:50:18.691Z,75.44
2023-04-30T03:52:45.543Z,75.75
2023-04-30T03:55:12.593Z,75.27
2023-04-30T03:57:39.937Z,75.65
2023-04-30T04:00:07.230Z,74.87
2023-04-30T04:02:34.124Z,74.44
2023-04-30T04:05:00.575Z,75.77
2023-04-30T04:07:26.936Z,73.48
2023-04-30T04:09:53.331Z,74.05
2023-04-30T04:12:19.698Z,75.04
2023-04-30T04:14:46.101Z,74.51
2023-04-30T04:17:12.397Z,74.54
2023-04-30T04:19:38.690Z,75.10
2023-04-30T04:22:04.997Z,74.59
2023-04-30T04:24:31.331Z,74.18
2023-04-30T04:26:57.643Z,74.40
2023-04-30T04:29:23.935Z,74.28
2023-04-30T04:31:50.267Z,74.19
2023-04-30T04:34:16.937Z,74.34
2023-04-30T04:36:43.264Z,75.22
2023-04-30T04:39:09.578Z,74.55
2023-04-30T04:41:36.076Z,73.56
2023-04-30T04:44:02.566Z,74.49
2023-04-30T04:46:30.053Z,74.40
2023-04-30T04:48:56.362Z,74.20
2023-04-30T04:51:22.686Z,74.41
2023-04-30T04:53:49.039Z,74.01
2023-04-30T04:56:15.527Z,74.39
2023-04-30T04:58:42.976Z,74.53
2023-04-30T05:01:09.290Z,74.67
2023-04-30T05:03:36.104Z,73.56
2023-04-30T05:06:03.535Z,72.67
2023-04-30T05:08:29.863Z,72.61
2023-04-30T05:10:56.159Z,72.43
2023-04-30T05:13:22.678Z,71.55
2023-04-30T05:15:51.484Z,71.38
2023-04-30T05:18:17.938Z,71.95
2023-04-30T05:20:44.244Z,71.86
2023-04-30T05:23:10.588Z,70.72
2023-04-30T05:25:36.898Z,70.11
2023-04-30T05:28:03.192Z,70.08
2023-04-30T05:30:29.541Z,69.77
2023-04-30T05:32:56.151Z,69.18
2023-04-30T05:35:22.650Z,69.49
2023-04-30T05:37:49.080Z,69.04
2023-04-30T05:40:15.523Z,69.28
2023-04-30T05:42:42.346Z,69.07
2023-04-30T05:45:09.292Z,67.89
2023-04-30T05:47:35.609Z,68.13
2023-04-30T05:50:01.905Z,67.23
2023-04-30T05:52:28.194Z,67.46
2023-04-30T05:54:54.459Z,67.31
2023-04-30T05:57:20.736Z,67.53
2023-04-30T05:59:47.125Z,67.52
2023-04-30T06:02:13.487Z,66.01
2023-04-30T06:04:40.068Z,66.51
2023-04-30T06:07:06.346Z,66.49
2023-04-30T06:09:32.638Z,65.81
2023-04-30T06:11:59.086Z,65.99
2023-04-30T06:14:25.480Z,65.78
2023-04-30T06:16:51.909Z,64.45
2023-04-30T06:19:18.308Z,63.35
2023-04-30T06:21:44.620Z,64.63
2023-04-30T06:24:11.018Z,64.37
2023-04-30T06:26:38.870Z,65.18
2023-04-30T06:29:05.361Z,64.77
2023-04-30T06:31:31.735Z,64.67
2023-04-30T06:33:58.049Z,64.91
2023-04-30T06:36:24.327Z,65.18
2023-04-30T06:38:50.636Z,65.42
2023-04-30T06:41:16.933Z,65.43
2023-04-30T06:43:43.657Z,65.31
2023-04-30T06:46:10.082Z,65.64
2023-04-30T06:48:36.391Z,65.39
2023-04-30T06:51:02.684Z,63.76
2023-04-30T06:53:29.085Z,63.42
2023-04-30T06:55:55.446Z,63.74
2023-04-30T06:58:21.732Z,62.89
2023-04-30T07:00:48.052Z,63.35
2023-04-30T07:03:14.533Z,63.12
2023-04-30T07:05:40.867Z,62.37
2023-04-30T07:08:07.281Z,62.80
2023-04-30T07:10:33.577Z,63.09
2023-04-30T07:12:59.985Z,62.70
2023-04-30T07:15:26.405Z,62.44
2023-04-30T07:17:52.846Z,61.39
2023-04-30T07:20:19.204Z,60.69
2023-04-30T07:22:45.502Z,61.99
2023-04-30T07:25:15.105Z,64.20
2023-04-30T07:27:41.728Z,61.64
2023-04-30T07:30:08.964Z,61.70
2023-04-30T07:32:37.485Z,61.44
2023-04-30T07:35:04.839Z,58.67
2023-04-30T07:37:32.104Z,58.58
2023-04-30T07:39:59.870Z,60.29
2023-04-30T07:42:26.213Z,57.59
2023-04-30T07:44:52.680Z,58.38
2023-04-30T07:47:19.018Z,56.92
2023-04-30T07:49:47.135Z,57.06
2023-04-30T07:52:14.160Z,58.25
2023-04-30T07:54:40.542Z,58.17
2023-04-30T07:57:07.032Z,57.42
2023-04-30T07:59:33.353Z,57.19
2023-04-30T08:02:01.278Z,56.94
2023-04-30T08:04:27.735Z,56.21
2023-04-30T08:06:54.073Z,55.15
2023-04-30T08:09:20.502Z,53.91
2023-04-30T08:11:46.787Z,55.83
2023-04-30T08:14:13.069Z,55.77
2023-04-30T08:16:39.492Z,53.79
2023-04-30T08:19:05.953Z,53.16
2023-04-30T08:21:32.357Z,53.79
2023-04-30T08:23:58.883Z,52.13
2023-04-30T08:26:25.646Z,51.70
2023-04-30T08:28:51.944Z,51.90
2023-04-30T08:31:18.448Z,49.93
2023-04-30T08:33:44.836Z,49.37
2023-04-30T08:36:11.252Z,49.32
2023-04-30T08:38:37.537Z,49.43
2023-04-30T08:41:12.902Z,49.39
2023-04-30T08:43:40.519Z,48.68
2023-04-30T08:46:07.348Z,49.30
2023-04-30T08:48:34.099Z,48.03
2023-04-30T08:51:01.645Z,47.23
2023-04-30T08:53:29.101Z,46.94
2023-04-30T08:55:55.410Z,48.01
2023-04-30T08:58:21.803Z,46.28
2023-04-30T09:00:48.077Z,46.92
2023-04-30T09:03:14.816Z,46.19
2023-04-30T09:05:41.335Z,43.86
2023-04-30T09:08:08.329Z,44.10
2023-04-30T09:10:35.602Z,42.50
2023-04-30T09:13:02.999Z,44.57
2023-04-30T09:15:30.422Z,42.59
2023-04-30T09:18:25.969Z,41.75
2023-04-30T09:21:01.969Z,40.40
2023-04-30T09:23:28.962Z,42.69
2023-04-30T09:25:55.343Z,43.66
2023-04-30T09:28:22.604Z,43.36
2023-04-30T09:30:49.577Z,43.00
2023-04-30T09:33:15.845Z,42.87
2023-04-30T09:35:42.264Z,42.82
2023-04-30T09:38:25.968Z,42.71
2023-04-30T09:40:52.344Z,41.14
2023-04-30T09:43:18.641Z,41.63
2023-04-30T09:45:47.041Z,39.46
2023-04-30T09:48:17.569Z,40.83
2023-04-30T09:50:44.487Z,40.77
2023-04-30T09:53:12.276Z,39.84
2023-04-30T09:55:42.078Z,40.35
2023-04-30T09:58:10.308Z,39.18
2023-04-30T10:00:38.319Z,40.65
2023-04-30T10:03:09.475Z,40.85
2023-04-30T10:05:46.973Z,40.06
2023-04-30T10:08:31.521Z,39.25
2023-04-30T10:40:27.426Z,40.77
2023-04-30T10:42:54.351Z,40.27
2023-04-30T10:45:38.324Z,38.40
2023-04-30T12:58:13.916Z,32.21
2023-04-30T13:24:57.857Z,32.48
2023-04-30T13:59:47.781Z,30.15
2023-04-30T15:39:56.791Z,31.59
2023-04-30T15:42:23.507Z,31.30
2023-04-30T15:44:49.779Z,30.33
2023-04-30T15:47:16.100Z,30.43
2023-04-30T15:49:42.474Z,31.00
2023-04-30T15:52:08.881Z,30.93
2023-04-30T15:54:35.328Z,30.92
2023-04-30T15:57:01.983Z,29.34
2023-04-30T15:59:28.299Z,28.94
2023-04-30T16:01:54.620Z,29.25
2023-04-30T16:04:21.030Z,30.12
2023-04-30T16:06:47.522Z,30.96
2023-04-30T16:09:14.031Z,31.01
2023-04-30T16:11:40.355Z,30.90
2023-04-30T16:14:06.660Z,31.32
2023-04-30T16:16:33.043Z,31.11
2023-04-30T16:18:59.364Z,32.05
2023-04-30T16:21:25.676Z,31.26
2023-04-30T16:23:52.019Z,32.12
2023-04-30T16:26:18.297Z,31.35
2023-04-30T16:28:45.124Z,31.36
2023-04-30T16:31:11.477Z,31.95
2023-04-30T16:33:38.046Z,31.41
2023-04-30T16:36:04.410Z,30.70
2023-04-30T16:38:30.723Z,30.94
2023-04-30T16:40:57.035Z,30.52
2023-04-30T16:43:23.381Z,30.62
2023-04-30T16:45:49.854Z,30.71
2023-04-30T16:48:16.218Z,30.47
2023-04-30T16:50:42.568Z,30.42
2023-04-30T16:53:10.870Z,30.10
2023-04-30T16:55:37.370Z,30.53
2023-04-30T16:58:03.706Z,30.39
2023-04-30T17:00:30.026Z,31.04
2023-04-30T17:02:56.451Z,31.08
2023-04-30T17:05:22.924Z,30.95
2023-04-30T17:07:49.259Z,30.41
2023-04-30T17:10:15.787Z,30.79
2023-04-30T17:12:42.098Z,30.93
2023-04-30T17:15:08.848Z,30.41
2023-04-30T17:17:35.243Z,30.29
2023-04-30T17:20:01.645Z,30.06
2023-04-30T17:22:28.049Z,29.97
2023-04-30T17:24:54.369Z,30.16
2023-04-30T17:27:20.673Z,30.46
2023-04-30T17:29:46.980Z,30.73
2023-04-30T17:32:13.283Z,30.45
2023-04-30T17:34:39.600Z,31.11
2023-04-30T17:37:05.899Z,31.34
2023-04-30T17:39:32.209Z,31.44
2023-04-30T17:41:59.001Z,31.96
2023-04-30T17:44:25.431Z,32.21
2023-04-30T17:46:51.839Z,32.37
2023-04-30T17:49:18.254Z,32.69
2023-04-30T17:51:44.601Z,33.45
2023-04-30T17:54:10.914Z,33.59
2023-04-30T17:56:37.179Z,34.06
2023-04-30T17:59:03.507Z,34.34
2023-04-30T18:01:29.863Z,34.88
2023-04-30T18:03:59.614Z,35.62
2023-04-30T18:06:26.065Z,35.75
2023-04-30T18:08:52.359Z,36.06
2023-04-30T18:11:18.647Z,36.50
2023-04-30T18:13:45.071Z,36.61
2023-04-30T18:16:11.417Z,37.06
2023-04-30T18:18:37.732Z,37.38
2023-04-30T18:21:04.187Z,37.35
2023-04-30T18:23:30.478Z,38.20
2023-04-30T18:25:56.757Z,37.55
2023-04-30T18:28:23.103Z,38.00
2023-04-30T18:30:49.418Z,38.50
2023-04-30T18:33:15.773Z,38.60
2023-04-30T18:35:42.134Z,39.18
2023-04-30T18:38:08.474Z,39.16
2023-04-30T18:40:34.880Z,39.59
2023-04-30T18:43:01.230Z,39.81
2023-04-30T18:45:27.716Z,40.24
2023-04-30T18:47:54.039Z,40.33
2023-04-30T18:50:20.312Z,40.81
2023-04-30T18:52:46.684Z,40.81
2023-04-30T18:55:13.154Z,41.49
2023-04-30T18:57:42.111Z,42.08
2023-04-30T19:00:09.850Z,41.91
2023-04-30T19:02:36.269Z,43.13
2023-04-30T19:05:02.722Z,42.45
2023-04-30T19:07:29.084Z,42.33
2023-04-30T19:09:55.688Z,42.59
2023-04-30T19:12:22.278Z,42.62
2023-04-30T19:14:48.685Z,42.77
2023-04-30T19:17:15.238Z,42.97
2023-04-30T19:19:43.270Z,43.29
2023-04-30T19:22:09.637Z,43.26
2023-04-30T19:24:35.948Z,43.33
2023-04-30T19:27:02.237Z,44.92
2023-04-30T19:29:29.735Z,43.52
2023-04-30T19:31:56.281Z,45.32
2023-04-30T19:34:22.730Z,44.18
2023-04-30T19:36:49.049Z,43.96
2023-04-30T19:39:15.332Z,44.40
2023-04-30T19:41:41.671Z,44.27
2023-04-30T19:44:07.985Z,44.67
2023-04-30T19:46:34.722Z,44.37
2023-04-30T19:49:01.029Z,44.74
2023-04-30T19:51:27.391Z,44.66
2023-04-30T19:53:53.788Z,44.98
2023-04-30T19:56:20.306Z,45.47
2023-04-30T19:58:46.720Z,45.38
2023-04-30T20:01:13.174Z,45.43
2023-04-30T20:03:41.806Z,45.85
2023-04-30T20:06:09.273Z,45.87
2023-04-30T20:08:35.609Z,46.08
2023-04-30T20:11:03.409Z,45.83
2023-04-30T20:13:30.368Z,45.95
2023-04-30T20:15:57.417Z,46.24
2023-04-30T20:18:23.797Z,46.28
2023-04-30T20:20:50.184Z,46.19
2023-04-30T20:23:17.628Z,46.71
2023-04-30T20:25:45.629Z,46.81
2023-04-30T20:28:13.387Z,46.77
2023-04-30T20:30:40.047Z,47.08
2023-04-30T20:33:06.398Z,47.32
2023-04-30T20:35:32.745Z,47.57
2023-04-30T20:37:59.174Z,47.40
2023-04-30T20:40:25.472Z,47.96
2023-04-30T20:42:51.774Z,47.90
2023-04-30T20:45:18.065Z,49.04
2023-04-30T20:47:44.605Z,48.33
2023-04-30T20:50:10.985Z,48.57
2023-04-30T20:52:37.265Z,48.98
2023-04-30T20:55:03.812Z,50.04
2023-04-30T20:57:30.114Z,49.62
2023-04-30T20:59:56.651Z,49.55
2023-04-30T21:02:23.350Z,50.15
2023-04-30T21:04:49.704Z,49.78
2023-04-30T21:07:15.991Z,49.65
2023-04-30T21:09:42.313Z,50.46
2023-04-30T21:12:09.267Z,50.66
2023-04-30T21:14:35.704Z,50.82
2023-04-30T21:17:02.104Z,50.20
2023-04-30T21:19:28.440Z,50.85
2023-04-30T21:21:54.730Z,51.00
2023-04-30T21:24:21.033Z,50.65
2023-04-30T21:26:47.501Z,49.56
2023-04-30T21:29:13.820Z,50.04
2023-04-30T21:31:40.250Z,49.36
2023-04-30T21:34:06.553Z,50.08
2023-04-30T21:36:32.845Z,51.33
2023-04-30T21:38:59.160Z,50.91
2023-04-30T21:41:25.514Z,50.64
2023-04-30T21:43:51.809Z,50.40
2023-04-30T21:46:18.248Z,50.44
2023-04-30T21:48:44.902Z,50.16
2023-04-30T21:51:15.421Z,49.93
2023-04-30T21:53:41.852Z,50.68
2023-04-30T21:56:08.692Z,51.01
2023-04-30T21:58:35.998Z,50.86
2023-04-30T22:01:02.607Z,51.54
2023-04-30T22:03:29.093Z,51.57
2023-04-30T22:05:55.651Z,53.03
2023-04-30T22:08:22.059Z,52.30
2023-04-30T22:10:48.360Z,52.82
2023-04-30T22:13:15.130Z,53.34
2023-04-30T22:18:13.217Z,55.47
2023-04-30T22:20:39.510Z,55.23
2023-04-30T22:23:05.781Z,54.80
2023-04-30T22:25:32.114Z,54.99
2023-04-30T22:27:58.446Z,55.29
2023-04-30T22:30:24.732Z,55.70
2023-04-30T22:32:55.603Z,55.67
2023-04-30T22:35:22.757Z,56.06
2023-04-30T22:37:49.782Z,56.32
2023-04-30T22:40:16.193Z,56.39
2023-04-30T22:42:43.294Z,56.28
2023-04-30T22:45:10.520Z,56.10
2023-04-30T22:47:37.086Z,56.15
2023-04-30T22:50:03.994Z,56.01
2023-04-30T22:52:30.380Z,56.47
2023-04-30T22:54:56.702Z,57.02
2023-04-30T22:57:23.037Z,56.84
2023-04-30T22:59:49.546Z,56.81
2023-04-30T23:02:15.832Z,56.88
2023-04-30T23:04:42.432Z,57.15
2023-04-30T23:07:09.166Z,57.53
2023-04-30T23:09:35.494Z,57.80
2023-04-30T23:12:01.820Z,58.98
2023-04-30T23:14:28.184Z,58.62
2023-04-30T23:16:54.634Z,59.54
2023-04-30T23:19:21.110Z,59.30
2023-04-30T23:21:47.413Z,59.48
2023-04-30T23:24:13.718Z,59.75
2023-04-30T23:26:40.027Z,59.15
2023-04-30T23:29:06.315Z,60.43
2023-04-30T23:31:32.649Z,59.44
2023-04-30T23:33:58.934Z,59.70
2023-04-30T23:36:25.302Z,60.40
2023-04-30T23:38:51.689Z,60.21
2023-04-30T23:41:18.042Z,60.04
2023-04-30T23:43:44.481Z,60.89
2023-04-30T23:46:10.894Z,60.78
2023-04-30T23:48:37.366Z,61.16
2023-04-30T23:51:05.169Z,61.09
2023-04-30T23:53:31.819Z,60.87
2023-04-30T23:55:58.909Z,61.41
2023-04-30T23:58:25.776Z,61.68
